sensor_id;sensor_type;location;lat;lon;timestamp;P1;durP1;ratioP1;P2;durP2;ratioP2
22606;SDS011;11470;20.968;105.834;2023-05-10T00:03:30;62.40;;;28.67;;
22606;SDS011;11470;20.968;105.834;2023-05-10T00:08:35;72.15;;;30.55;;
22606;SDS011;11470;20.968;105.834;2023-05-10T00:13:40;63.20;;;28.77;;
22606;SDS011;11470;20.968;105.834;2023-05-10T00:18:46;56.83;;;27.17;;
22606;SDS011;11470;20.968;105.834;2023-05-10T00:23:51;55.38;;;26.77;;
22606;SDS011;11470;20.968;105.834;2023-05-10T00:28:56;47.57;;;25.27;;
22606;SDS011;11470;20.968;105.834;2023-05-10T00:34:02;47.67;;;25.75;;
22606;SDS011;11470;20.968;105.834;2023-05-10T00:39:08;41.63;;;23.02;;
22606;SDS011;11470;20.968;105.834;2023-05-10T00:44:13;33.58;;;16.77;;
22606;SDS011;11470;20.968;105.834;2023-05-10T00:49:19;47.25;;;23.02;;
22606;SDS011;11470;20.968;105.834;2023-05-10T00:54:24;43.67;;;22.20;;
22606;SDS011;11470;20.968;105.834;2023-05-10T00:59:30;39.00;;;20.77;;
22606;SDS011;11470;20.968;105.834;2023-05-10T01:09:41;38.38;;;22.60;;
22606;SDS011;11470;20.968;105.834;2023-05-10T01:14:46;36.58;;;22.45;;
22606;SDS011;11470;20.968;105.834;2023-05-10T01:19:53;49.40;;;24.85;;
22606;SDS011;11470;20.968;105.834;2023-05-10T01:25:11;29.67;;;18.75;;
22606;SDS011;11470;20.968;105.834;2023-05-10T01:30:45;46.90;;;25.35;;
22606;SDS011;11470;20.968;105.834;2023-05-10T01:42:09;48.70;;;27.75;;
22606;SDS011;11470;20.968;105.834;2023-05-10T01:47:25;42.58;;;24.65;;
22606;SDS011;11470;20.968;105.834;2023-05-10T01:52:40;52.08;;;27.95;;
22606;SDS011;11470;20.968;105.834;2023-05-10T01:57:49;49.50;;;27.45;;
22606;SDS011;11470;20.968;105.834;2023-05-10T02:03:04;51.38;;;30.67;;
22606;SDS011;11470;20.968;105.834;2023-05-10T02:08:11;68.85;;;38.47;;
22606;SDS011;11470;20.968;105.834;2023-05-10T02:13:21;73.28;;;40.75;;
22606;SDS011;11470;20.968;105.834;2023-05-10T02:18:30;75.50;;;42.92;;
22606;SDS011;11470;20.968;105.834;2023-05-10T02:23:38;83.63;;;47.72;;
22606;SDS011;11470;20.968;105.834;2023-05-10T02:28:43;91.72;;;53.25;;
22606;SDS011;11470;20.968;105.834;2023-05-10T02:33:50;95.78;;;53.92;;
22606;SDS011;11470;20.968;105.834;2023-05-10T02:38:57;75.60;;;46.10;;
22606;SDS011;11470;20.968;105.834;2023-05-10T02:44:05;92.00;;;57.28;;
22606;SDS011;11470;20.968;105.834;2023-05-10T02:49:12;99.28;;;56.80;;
22606;SDS011;11470;20.968;105.834;2023-05-10T02:54:20;99.70;;;58.50;;
22606;SDS011;11470;20.968;105.834;2023-05-10T02:59:28;74.50;;;46.25;;
22606;SDS011;11470;20.968;105.834;2023-05-10T03:04:34;74.03;;;43.17;;
22606;SDS011;11470;20.968;105.834;2023-05-10T03:09:39;53.95;;;35.97;;
22606;SDS011;11470;20.968;105.834;2023-05-10T03:20:03;51.35;;;36.53;;
22606;SDS011;11470;20.968;105.834;2023-05-10T03:25:14;45.70;;;26.83;;
22606;SDS011;11470;20.968;105.834;2023-05-10T03:30:21;53.00;;;35.20;;
22606;SDS011;11470;20.968;105.834;2023-05-10T03:35:26;53.28;;;32.83;;
22606;SDS011;11470;20.968;105.834;2023-05-10T03:40:32;45.13;;;32.30;;
22606;SDS011;11470;20.968;105.834;2023-05-10T03:45:38;49.08;;;30.75;;
22606;SDS011;11470;20.968;105.834;2023-05-10T03:55:50;48.40;;;29.90;;
22606;SDS011;11470;20.968;105.834;2023-05-10T04:00:55;40.85;;;26.10;;
22606;SDS011;11470;20.968;105.834;2023-05-10T04:06:01;47.05;;;28.60;;
22606;SDS011;11470;20.968;105.834;2023-05-10T04:11:07;41.50;;;27.15;;
22606;SDS011;11470;20.968;105.834;2023-05-10T04:16:14;49.97;;;31.40;;
22606;SDS011;11470;20.968;105.834;2023-05-10T04:21:19;31.92;;;21.13;;
22606;SDS011;11470;20.968;105.834;2023-05-10T04:26:25;50.72;;;29.67;;
22606;SDS011;11470;20.968;105.834;2023-05-10T04:31:31;36.83;;;23.67;;
22606;SDS011;11470;20.968;105.834;2023-05-10T04:36:38;45.28;;;32.08;;
22606;SDS011;11470;20.968;105.834;2023-05-10T04:41:43;51.25;;;29.08;;
22606;SDS011;11470;20.968;105.834;2023-05-10T04:46:49;36.22;;;25.38;;
22606;SDS011;11470;20.968;105.834;2023-05-10T04:51:55;36.75;;;25.10;;
22606;SDS011;11470;20.968;105.834;2023-05-10T05:02:05;37.33;;;24.23;;
22606;SDS011;11470;20.968;105.834;2023-05-10T05:07:10;40.13;;;28.23;;
22606;SDS011;11470;20.968;105.834;2023-05-10T05:17:21;40.97;;;25.92;;
22606;SDS011;11470;20.968;105.834;2023-05-10T05:22:26;38.50;;;25.27;;
22606;SDS011;11470;20.968;105.834;2023-05-10T05:27:32;42.20;;;27.75;;
22606;SDS011;11470;20.968;105.834;2023-05-10T05:32:37;39.95;;;24.30;;
22606;SDS011;11470;20.968;105.834;2023-05-10T05:37:43;39.25;;;25.95;;
22606;SDS011;11470;20.968;105.834;2023-05-10T05:42:49;39.00;;;28.25;;
22606;SDS011;11470;20.968;105.834;2023-05-10T05:47:54;43.15;;;29.77;;
22606;SDS011;11470;20.968;105.834;2023-05-10T05:53:00;36.33;;;28.02;;
22606;SDS011;11470;20.968;105.834;2023-05-10T05:58:06;39.40;;;29.58;;
22606;SDS011;11470;20.968;105.834;2023-05-10T06:03:11;42.03;;;31.53;;
22606;SDS011;11470;20.968;105.834;2023-05-10T06:08:18;46.20;;;30.50;;
22606;SDS011;11470;20.968;105.834;2023-05-10T06:13:23;39.60;;;28.83;;
22606;SDS011;11470;20.968;105.834;2023-05-10T06:18:33;42.10;;;30.17;;
22606;SDS011;11470;20.968;105.834;2023-05-10T06:23:41;39.78;;;27.13;;
22606;SDS011;11470;20.968;105.834;2023-05-10T06:28:48;38.22;;;28.65;;
22606;SDS011;11470;20.968;105.834;2023-05-10T06:33:53;38.83;;;26.73;;
22606;SDS011;11470;20.968;105.834;2023-05-10T06:39:02;37.45;;;26.52;;
22606;SDS011;11470;20.968;105.834;2023-05-10T06:49:12;33.70;;;24.13;;
22606;SDS011;11470;20.968;105.834;2023-05-10T06:54:18;33.88;;;24.92;;
22606;SDS011;11470;20.968;105.834;2023-05-10T06:59:23;29.77;;;23.03;;
22606;SDS011;11470;20.968;105.834;2023-05-10T07:04:28;28.80;;;21.42;;
22606;SDS011;11470;20.968;105.834;2023-05-10T07:09:34;26.98;;;17.75;;
22606;SDS011;11470;20.968;105.834;2023-05-10T07:14:39;36.08;;;24.85;;
22606;SDS011;11470;20.968;105.834;2023-05-10T07:24:49;22.00;;;17.40;;
22606;SDS011;11470;20.968;105.834;2023-05-10T07:35:00;27.63;;;18.42;;
22606;SDS011;11470;20.968;105.834;2023-05-10T07:40:07;25.27;;;16.13;;
22606;SDS011;11470;20.968;105.834;2023-05-10T07:45:13;25.13;;;19.45;;
22606;SDS011;11470;20.968;105.834;2023-05-10T07:50:18;27.00;;;17.38;;
22606;SDS011;11470;20.968;105.834;2023-05-10T07:55:24;26.17;;;16.15;;
22606;SDS011;11470;20.968;105.834;2023-05-10T08:05:36;23.42;;;17.08;;
22606;SDS011;11470;20.968;105.834;2023-05-10T08:10:41;19.33;;;14.02;;
22606;SDS011;11470;20.968;105.834;2023-05-10T08:20:52;24.42;;;16.65;;
22606;SDS011;11470;20.968;105.834;2023-05-10T08:25:58;24.70;;;18.02;;
22606;SDS011;11470;20.968;105.834;2023-05-10T08:31:04;24.48;;;15.93;;
22606;SDS011;11470;20.968;105.834;2023-05-10T08:36:11;24.45;;;14.35;;
22606;SDS011;11470;20.968;105.834;2023-05-10T08:41:21;22.45;;;11.98;;
22606;SDS011;11470;20.968;105.834;2023-05-10T08:46:29;23.63;;;14.07;;
22606;SDS011;11470;20.968;105.834;2023-05-10T08:51:40;26.60;;;17.83;;
22606;SDS011;11470;20.968;105.834;2023-05-10T08:56:56;27.02;;;17.63;;
22606;SDS011;11470;20.968;105.834;2023-05-10T09:02:04;24.85;;;16.63;;
22606;SDS011;11470;20.968;105.834;2023-05-10T09:07:10;25.48;;;13.80;;
22606;SDS011;11470;20.968;105.834;2023-05-10T09:12:16;15.73;;;12.95;;
22606;SDS011;11470;20.968;105.834;2023-05-10T09:17:32;26.30;;;17.52;;
22606;SDS011;11470;20.968;105.834;2023-05-10T09:22:46;26.00;;;14.40;;
22606;SDS011;11470;20.968;105.834;2023-05-10T09:27:51;20.48;;;13.48;;
22606;SDS011;11470;20.968;105.834;2023-05-10T09:32:57;24.38;;;13.57;;
22606;SDS011;11470;20.968;105.834;2023-05-10T09:38:07;24.58;;;16.25;;
22606;SDS011;11470;20.968;105.834;2023-05-10T09:43:16;21.10;;;15.88;;
22606;SDS011;11470;20.968;105.834;2023-05-10T09:48:26;22.50;;;14.90;;
22606;SDS011;11470;20.968;105.834;2023-05-10T09:53:39;19.33;;;15.18;;
22606;SDS011;11470;20.968;105.834;2023-05-10T09:58:46;19.27;;;13.85;;
22606;SDS011;11470;20.968;105.834;2023-05-10T10:04:06;28.05;;;15.02;;
22606;SDS011;11470;20.968;105.834;2023-05-10T10:09:13;25.55;;;15.95;;
22606;SDS011;11470;20.968;105.834;2023-05-10T10:14:19;23.75;;;14.70;;
22606;SDS011;11470;20.968;105.834;2023-05-10T10:19:27;20.83;;;12.43;;
22606;SDS011;11470;20.968;105.834;2023-05-10T10:24:40;22.15;;;16.77;;
22606;SDS011;11470;20.968;105.834;2023-05-10T10:35:11;20.13;;;16.27;;
22606;SDS011;11470;20.968;105.834;2023-05-10T10:52:34;25.02;;;14.40;;
22606;SDS011;11470;20.968;105.834;2023-05-10T11:08:16;24.80;;;14.73;;
22606;SDS011;11470;20.968;105.834;2023-05-10T11:13:41;18.85;;;13.68;;
22606;SDS011;11470;20.968;105.834;2023-05-10T11:24:08;19.95;;;13.82;;
22606;SDS011;11470;20.968;105.834;2023-05-10T11:29:19;19.48;;;14.38;;
22606;SDS011;11470;20.968;105.834;2023-05-10T11:39:34;19.98;;;13.82;;
22606;SDS011;11470;20.968;105.834;2023-05-10T11:44:49;19.27;;;12.90;;
22606;SDS011;11470;20.968;105.834;2023-05-10T11:49:54;31.65;;;16.35;;
22606;SDS011;11470;20.968;105.834;2023-05-10T11:55:01;17.13;;;13.88;;
22606;SDS011;11470;20.968;105.834;2023-05-10T12:00:19;21.33;;;14.35;;
22606;SDS011;11470;20.968;105.834;2023-05-10T12:05:31;16.83;;;13.07;;
22606;SDS011;11470;20.968;105.834;2023-05-10T12:10:37;23.73;;;12.52;;
22606;SDS011;11470;20.968;105.834;2023-05-10T12:20:48;22.48;;;13.70;;
22606;SDS011;11470;20.968;105.834;2023-05-10T12:26:10;19.48;;;13.88;;
22606;SDS011;11470;20.968;105.834;2023-05-10T12:31:19;20.17;;;12.35;;
22606;SDS011;11470;20.968;105.834;2023-05-10T12:36:25;21.92;;;13.32;;
22606;SDS011;11470;20.968;105.834;2023-05-10T12:46:35;21.45;;;12.80;;
22606;SDS011;11470;20.968;105.834;2023-05-10T12:51:41;18.80;;;13.38;;
22606;SDS011;11470;20.968;105.834;2023-05-10T12:56:49;25.20;;;12.57;;
22606;SDS011;11470;20.968;105.834;2023-05-10T13:01:58;21.15;;;12.50;;
22606;SDS011;11470;20.968;105.834;2023-05-10T13:12:10;18.63;;;13.60;;
22606;SDS011;11470;20.968;105.834;2023-05-10T13:17:16;18.20;;;12.38;;
22606;SDS011;11470;20.968;105.834;2023-05-10T13:27:41;23.50;;;13.70;;
22606;SDS011;11470;20.968;105.834;2023-05-10T13:37:51;20.50;;;13.45;;
22606;SDS011;11470;20.968;105.834;2023-05-10T13:42:57;22.75;;;13.50;;
22606;SDS011;11470;20.968;105.834;2023-05-10T13:48:03;21.08;;;13.55;;
22606;SDS011;11470;20.968;105.834;2023-05-10T13:53:13;19.60;;;13.35;;
22606;SDS011;11470;20.968;105.834;2023-05-10T13:58:19;22.52;;;13.73;;
22606;SDS011;11470;20.968;105.834;2023-05-10T14:03:25;17.80;;;12.45;;
22606;SDS011;11470;20.968;105.834;2023-05-10T14:08:32;21.40;;;13.45;;
22606;SDS011;11470;20.968;105.834;2023-05-10T14:13:38;26.08;;;14.00;;
22606;SDS011;11470;20.968;105.834;2023-05-10T14:18:45;21.48;;;13.50;;
22606;SDS011;11470;20.968;105.834;2023-05-10T14:24:03;22.15;;;14.13;;
22606;SDS011;11470;20.968;105.834;2023-05-10T14:29:11;22.70;;;13.93;;
22606;SDS011;11470;20.968;105.834;2023-05-10T14:34:17;23.75;;;13.02;;
22606;SDS011;11470;20.968;105.834;2023-05-10T14:39:24;29.08;;;15.30;;
22606;SDS011;11470;20.968;105.834;2023-05-10T14:49:35;21.52;;;14.20;;
22606;SDS011;11470;20.968;105.834;2023-05-10T14:54:40;21.60;;;13.95;;
22606;SDS011;11470;20.968;105.834;2023-05-10T14:59:46;23.63;;;14.85;;
22606;SDS011;11470;20.968;105.834;2023-05-10T15:04:53;32.55;;;18.27;;
22606;SDS011;11470;20.968;105.834;2023-05-10T15:10:02;31.40;;;17.65;;
22606;SDS011;11470;20.968;105.834;2023-05-10T15:15:07;30.33;;;16.10;;
22606;SDS011;11470;20.968;105.834;2023-05-10T15:20:14;26.40;;;15.27;;
22606;SDS011;11470;20.968;105.834;2023-05-10T15:25:22;28.70;;;17.88;;
22606;SDS011;11470;20.968;105.834;2023-05-10T15:30:29;22.80;;;16.85;;
22606;SDS011;11470;20.968;105.834;2023-05-10T15:35:34;31.17;;;18.50;;
22606;SDS011;11470;20.968;105.834;2023-05-10T15:40:42;37.30;;;19.95;;
22606;SDS011;11470;20.968;105.834;2023-05-10T15:45:47;27.87;;;17.47;;
22606;SDS011;11470;20.968;105.834;2023-05-10T15:55:57;33.92;;;17.58;;
22606;SDS011;11470;20.968;105.834;2023-05-10T16:01:04;29.15;;;17.42;;
22606;SDS011;11470;20.968;105.834;2023-05-10T16:06:10;26.23;;;17.13;;
22606;SDS011;11470;20.968;105.834;2023-05-10T16:11:16;26.25;;;17.08;;
22606;SDS011;11470;20.968;105.834;2023-05-10T16:16:21;33.78;;;18.85;;
22606;SDS011;11470;20.968;105.834;2023-05-10T16:21:37;37.63;;;19.25;;
22606;SDS011;11470;20.968;105.834;2023-05-10T16:26:46;29.77;;;18.52;;
22606;SDS011;11470;20.968;105.834;2023-05-10T16:31:53;30.77;;;18.33;;
22606;SDS011;11470;20.968;105.834;2023-05-10T16:42:09;38.72;;;22.67;;
22606;SDS011;11470;20.968;105.834;2023-05-10T16:47:21;37.17;;;21.98;;
22606;SDS011;11470;20.968;105.834;2023-05-10T16:52:30;36.80;;;20.38;;
22606;SDS011;11470;20.968;105.834;2023-05-10T16:57:35;34.05;;;18.65;;
22606;SDS011;11470;20.968;105.834;2023-05-10T17:02:41;44.45;;;19.58;;
22606;SDS011;11470;20.968;105.834;2023-05-10T17:07:48;42.72;;;19.13;;
22606;SDS011;11470;20.968;105.834;2023-05-10T17:12:53;28.50;;;18.27;;
22606;SDS011;11470;20.968;105.834;2023-05-10T17:17:59;26.80;;;17.52;;
22606;SDS011;11470;20.968;105.834;2023-05-10T17:23:05;30.02;;;18.40;;
22606;SDS011;11470;20.968;105.834;2023-05-10T17:28:10;34.08;;;17.15;;
22606;SDS011;11470;20.968;105.834;2023-05-10T17:33:16;34.42;;;17.63;;
22606;SDS011;11470;20.968;105.834;2023-05-10T17:38:21;29.27;;;17.48;;
22606;SDS011;11470;20.968;105.834;2023-05-10T17:43:27;34.13;;;17.20;;
22606;SDS011;11470;20.968;105.834;2023-05-10T17:48:33;33.70;;;18.08;;
22606;SDS011;11470;20.968;105.834;2023-05-10T17:53:40;29.40;;;17.00;;
22606;SDS011;11470;20.968;105.834;2023-05-10T17:58:49;32.40;;;16.65;;
22606;SDS011;11470;20.968;105.834;2023-05-10T18:03:54;28.85;;;17.48;;
22606;SDS011;11470;20.968;105.834;2023-05-10T18:09:00;33.42;;;18.38;;
22606;SDS011;11470;20.968;105.834;2023-05-10T18:14:06;40.83;;;19.45;;
22606;SDS011;11470;20.968;105.834;2023-05-10T18:19:12;39.03;;;20.50;;
22606;SDS011;11470;20.968;105.834;2023-05-10T18:24:18;41.42;;;18.52;;
22606;SDS011;11470;20.968;105.834;2023-05-10T18:29:42;34.33;;;18.77;;
22606;SDS011;11470;20.968;105.834;2023-05-10T18:34:47;33.50;;;18.45;;
22606;SDS011;11470;20.968;105.834;2023-05-10T18:39:52;38.72;;;19.00;;
22606;SDS011;11470;20.968;105.834;2023-05-10T18:44:58;39.40;;;20.27;;
22606;SDS011;11470;20.968;105.834;2023-05-10T18:50:03;49.97;;;21.58;;
22606;SDS011;11470;20.968;105.834;2023-05-10T18:55:09;46.97;;;23.30;;
22606;SDS011;11470;20.968;105.834;2023-05-10T19:00:15;36.70;;;19.20;;
22606;SDS011;11470;20.968;105.834;2023-05-10T19:05:23;41.83;;;20.63;;
22606;SDS011;11470;20.968;105.834;2023-05-10T19:10:32;34.08;;;19.85;;
22606;SDS011;11470;20.968;105.834;2023-05-10T19:15:38;41.03;;;20.15;;
22606;SDS011;11470;20.968;105.834;2023-05-10T19:20:44;35.60;;;19.95;;
22606;SDS011;11470;20.968;105.834;2023-05-10T19:30:55;36.13;;;18.92;;
22606;SDS011;11470;20.968;105.834;2023-05-10T19:36:01;37.65;;;20.55;;
22606;SDS011;11470;20.968;105.834;2023-05-10T19:41:07;44.05;;;20.45;;
22606;SDS011;11470;20.968;105.834;2023-05-10T19:46:14;32.45;;;18.73;;
22606;SDS011;11470;20.968;105.834;2023-05-10T19:51:24;40.92;;;20.42;;
22606;SDS011;11470;20.968;105.834;2023-05-10T19:56:43;47.65;;;20.30;;
22606;SDS011;11470;20.968;105.834;2023-05-10T20:01:48;47.70;;;24.40;;
22606;SDS011;11470;20.968;105.834;2023-05-10T20:06:54;35.38;;;19.25;;
22606;SDS011;11470;20.968;105.834;2023-05-10T20:11:59;36.47;;;20.98;;
22606;SDS011;11470;20.968;105.834;2023-05-10T20:22:10;38.83;;;21.20;;
22606;SDS011;11470;20.968;105.834;2023-05-10T20:27:15;31.92;;;18.88;;
22606;SDS011;11470;20.968;105.834;2023-05-10T20:32:21;34.05;;;18.67;;
22606;SDS011;11470;20.968;105.834;2023-05-10T20:37:27;31.58;;;17.45;;
22606;SDS011;11470;20.968;105.834;2023-05-10T20:42:32;32.08;;;16.25;;
22606;SDS011;11470;20.968;105.834;2023-05-10T20:52:43;30.02;;;17.92;;
22606;SDS011;11470;20.968;105.834;2023-05-10T20:57:50;26.00;;;16.15;;
22606;SDS011;11470;20.968;105.834;2023-05-10T21:02:55;17.88;;;12.93;;
22606;SDS011;11470;20.968;105.834;2023-05-10T21:08:01;19.33;;;15.10;;
22606;SDS011;11470;20.968;105.834;2023-05-10T21:13:06;21.88;;;14.90;;
22606;SDS011;11470;20.968;105.834;2023-05-10T21:18:12;17.50;;;14.38;;
22606;SDS011;11470;20.968;105.834;2023-05-10T21:28:23;15.80;;;12.43;;
22606;SDS011;11470;20.968;105.834;2023-05-10T21:33:28;18.63;;;13.35;;
22606;SDS011;11470;20.968;105.834;2023-05-10T21:38:33;16.00;;;9.88;;
22606;SDS011;11470;20.968;105.834;2023-05-10T21:43:38;19.83;;;10.13;;
22606;SDS011;11470;20.968;105.834;2023-05-10T21:48:44;17.13;;;10.23;;
22606;SDS011;11470;20.968;105.834;2023-05-10T21:53:49;17.52;;;12.40;;
22606;SDS011;11470;20.968;105.834;2023-05-10T21:58:55;18.02;;;13.10;;
22606;SDS011;11470;20.968;105.834;2023-05-10T22:04:01;19.70;;;15.85;;
22606;SDS011;11470;20.968;105.834;2023-05-10T22:09:07;24.63;;;18.15;;
22606;SDS011;11470;20.968;105.834;2023-05-10T22:14:13;20.92;;;17.15;;
22606;SDS011;11470;20.968;105.834;2023-05-10T22:19:19;23.13;;;17.77;;
22606;SDS011;11470;20.968;105.834;2023-05-10T22:24:24;24.80;;;17.75;;
22606;SDS011;11470;20.968;105.834;2023-05-10T22:34:34;20.02;;;16.63;;
22606;SDS011;11470;20.968;105.834;2023-05-10T22:39:40;19.27;;;15.65;;
22606;SDS011;11470;20.968;105.834;2023-05-10T22:44:45;20.40;;;16.88;;
22606;SDS011;11470;20.968;105.834;2023-05-10T22:49:51;18.27;;;14.97;;
22606;SDS011;11470;20.968;105.834;2023-05-10T22:54:57;19.20;;;15.75;;
22606;SDS011;11470;20.968;105.834;2023-05-10T23:00:03;19.75;;;15.15;;
22606;SDS011;11470;20.968;105.834;2023-05-10T23:05:09;20.85;;;15.65;;
22606;SDS011;11470;20.968;105.834;2023-05-10T23:10:16;18.63;;;14.60;;
22606;SDS011;11470;20.968;105.834;2023-05-10T23:15:21;19.40;;;14.00;;
22606;SDS011;11470;20.968;105.834;2023-05-10T23:20:27;19.38;;;14.90;;
22606;SDS011;11470;20.968;105.834;2023-05-10T23:25:34;25.50;;;17.67;;
22606;SDS011;11470;20.968;105.834;2023-05-10T23:30:40;22.80;;;16.52;;
22606;SDS011;11470;20.968;105.834;2023-05-10T23:35:45;23.33;;;17.10;;
22606;SDS011;11470;20.968;105.834;2023-05-10T23:40:51;26.13;;;17.77;;
22606;SDS011;11470;20.968;105.834;2023-05-10T23:45:57;27.25;;;17.65;;
22606;SDS011;11470;20.968;105.834;2023-05-10T23:51:03;24.45;;;18.05;;
22606;SDS011;11470;20.968;105.834;2023-05-10T23:56:08;25.13;;;17.85;;
